createdAt,value
2019-03-04T00:02:29.956Z,-1.91
2019-03-04T00:05:01.307Z,-1.94
2019-03-04T00:07:32.958Z,-1.94
2019-03-04T00:10:07.070Z,-1.95
2019-03-04T00:12:38.430Z,-2.04
2019-03-04T00:15:09.974Z,-1.97
2019-03-04T00:17:42.925Z,-1.99
2019-03-04T00:20:15.372Z,-2.17
2019-03-04T00:22:46.789Z,-2.07
2019-03-04T00:25:18.344Z,-2.05
2019-03-04T00:27:52.581Z,-2.07
2019-03-04T00:30:25.248Z,-2.12
2019-03-04T00:32:57.002Z,-2.16
2019-03-04T00:35:28.764Z,-2.11
2019-03-04T00:38:00.268Z,-2.14
2019-03-04T00:40:32.067Z,-2.08
2019-03-04T00:43:03.337Z,-2.12
2019-03-04T00:45:34.768Z,-2.12
2019-03-04T00:48:07.138Z,-2.07
2019-03-04T00:50:38.489Z,-2.04
2019-03-04T00:53:09.986Z,-1.99
2019-03-04T00:55:41.222Z,-2.01
2019-03-04T00:58:12.727Z,-1.96
2019-03-04T01:00:43.992Z,-1.95
2019-03-04T01:03:15.343Z,-1.94
2019-03-04T01:05:47.199Z,-1.89
2019-03-04T01:08:18.385Z,-1.88
2019-03-04T01:10:52.257Z,-1.97
2019-03-04T01:13:25.721Z,-1.98
2019-03-04T01:15:57.258Z,-1.96
2019-03-04T01:18:28.693Z,-2.08
2019-03-04T01:21:01.104Z,-2.03
2019-03-04T01:23:34.224Z,-2.05
2019-03-04T01:26:05.941Z,-2.03
2019-03-04T01:28:37.342Z,-2.06
2019-03-04T01:31:08.867Z,-2.09
2019-03-04T01:33:40.440Z,-2.06
2019-03-04T01:36:14.051Z,-2.13
2019-03-04T01:38:46.527Z,-2.12
2019-03-04T01:41:18.082Z,-2.12
2019-03-04T01:43:57.208Z,-2.13
2019-03-04T01:46:28.613Z,-2.14
2019-03-04T01:48:59.995Z,-2.18
2019-03-04T01:51:31.287Z,-2.16
2019-03-04T01:54:03.664Z,-2.16
2019-03-04T01:56:34.964Z,-2.14
2019-03-04T01:59:06.444Z,-2.13
2019-03-04T02:01:38.046Z,-2.13
2019-03-04T02:04:10.260Z,-2.16
2019-03-04T02:06:41.801Z,-2.10
2019-03-04T02:09:13.539Z,-2.04
2019-03-04T02:11:44.837Z,-2.08
2019-03-04T02:14:17.537Z,-2.05
2019-03-04T02:16:49.151Z,-2.07
2019-03-04T02:19:20.319Z,-1.99
2019-03-04T02:21:52.670Z,-1.91
2019-03-04T02:24:25.260Z,-2.01
2019-03-04T02:26:57.529Z,-1.96
2019-03-04T02:29:32.256Z,-1.91
2019-03-04T02:32:03.855Z,-1.83
2019-03-04T02:34:35.575Z,-1.79
2019-03-04T02:37:10.808Z,-1.70
2019-03-04T02:39:42.975Z,-1.72
2019-03-04T02:42:14.540Z,-1.74
2019-03-04T02:44:49.053Z,-1.63
2019-03-04T02:47:20.525Z,-1.59
2019-03-04T02:49:52.158Z,-1.64
2019-03-04T02:52:24.739Z,-1.66
2019-03-04T02:54:57.009Z,-1.60
2019-03-04T02:57:30.095Z,-1.51
2019-03-04T03:00:02.789Z,-1.44
2019-03-04T03:02:37.611Z,-1.38
2019-03-04T03:05:09.985Z,-1.37
2019-03-04T03:07:41.206Z,-1.40
2019-03-04T03:10:15.079Z,-1.30
2019-03-04T03:12:46.606Z,-1.29
2019-03-04T03:15:19.786Z,-1.26
2019-03-04T03:17:51.260Z,-1.27
2019-03-04T03:20:22.618Z,-1.31
2019-03-04T03:22:55.479Z,-1.20
2019-03-04T03:25:26.823Z,-1.18
2019-03-04T03:27:58.539Z,-1.24
2019-03-04T03:30:33.345Z,-1.17
2019-03-04T03:33:05.903Z,-1.17
2019-03-04T03:35:41.370Z,-1.15
2019-03-04T03:38:12.798Z,-1.13
2019-03-04T03:40:44.042Z,-1.09
2019-03-04T03:43:17.789Z,-1.09
2019-03-04T03:45:49.746Z,-1.13
2019-03-04T03:48:21.418Z,-1.16
2019-03-04T03:50:57.247Z,-1.03
2019-03-04T03:53:34.191Z,-1.01
2019-03-04T03:56:05.854Z,-1.05
2019-03-04T03:58:37.200Z,-1.05
2019-03-04T04:01:08.541Z,-1.05
2019-03-04T04:03:40.128Z,-1.00
2019-03-04T04:06:11.554Z,-0.99
2019-03-04T04:08:43.681Z,-0.98
2019-03-04T04:11:16.212Z,-0.98
2019-03-04T04:13:47.752Z,-0.98
2019-03-04T04:16:21.091Z,-0.93
2019-03-04T04:18:52.804Z,-0.94
2019-03-04T04:21:24.060Z,-0.99
2019-03-04T04:24:06.782Z,-1.08
2019-03-04T04:26:38.224Z,-1.06
2019-03-04T04:29:18.029Z,-1.07
2019-03-04T04:31:50.867Z,-1.12
2019-03-04T04:34:22.527Z,-1.15
2019-03-04T04:36:54.168Z,-1.17
2019-03-04T04:39:25.995Z,-1.14
2019-03-04T04:41:58.333Z,-1.14
2019-03-04T04:44:29.749Z,-1.18
2019-03-04T04:47:01.373Z,-1.19
2019-03-04T04:49:32.987Z,-1.12
2019-03-04T04:52:04.323Z,-1.05
2019-03-04T04:54:36.688Z,-1.07
2019-03-04T04:57:09.061Z,-0.95
2019-03-04T04:59:40.308Z,-0.88
2019-03-04T05:02:13.625Z,-0.83
2019-03-04T05:04:45.265Z,-0.75
2019-03-04T05:07:16.507Z,-0.73
2019-03-04T05:09:53.390Z,-0.64
2019-03-04T05:12:24.832Z,-0.52
2019-03-04T05:14:56.195Z,-0.44
2019-03-04T05:17:27.339Z,-0.46
2019-03-04T05:19:58.989Z,-0.30
2019-03-04T05:22:30.235Z,-0.21
2019-03-04T05:25:02.715Z,-0.11
2019-03-04T05:27:34.134Z,0.01
2019-03-04T05:30:08.997Z,0.05
2019-03-04T05:32:40.322Z,0.13
2019-03-04T05:35:12.073Z,0.28
2019-03-04T05:37:43.630Z,0.36
2019-03-04T05:40:19.571Z,0.30
2019-03-04T05:42:50.760Z,0.49
2019-03-04T05:45:22.355Z,0.56
2019-03-04T05:47:54.073Z,0.66
2019-03-04T05:50:26.653Z,0.79
2019-03-04T05:53:01.091Z,0.94
2019-03-04T05:55:32.465Z,0.87
2019-03-04T05:58:03.980Z,0.95
2019-03-04T06:00:40.453Z,1.00
2019-03-04T06:03:19.679Z,0.99
2019-03-04T06:05:53.483Z,1.09
2019-03-04T06:08:26.010Z,1.12
2019-03-04T06:10:57.718Z,1.16
2019-03-04T06:13:29.844Z,1.27
2019-03-04T06:16:01.352Z,1.27
2019-03-04T06:18:33.830Z,1.37
2019-03-04T06:21:05.326Z,1.44
2019-03-04T06:23:36.944Z,1.68
2019-03-04T06:26:11.301Z,1.66
2019-03-04T06:28:43.934Z,1.56
2019-03-04T06:31:15.724Z,1.61
2019-03-04T06:33:48.584Z,1.70
2019-03-04T06:36:20.233Z,1.57
2019-03-04T06:38:51.569Z,1.54
2019-03-04T06:41:23.924Z,1.56
2019-03-04T06:43:55.302Z,1.70
2019-03-04T06:46:26.752Z,1.91
2019-03-04T06:48:59.637Z,1.96
2019-03-04T06:51:34.857Z,2.08
2019-03-04T06:54:11.965Z,2.23
2019-03-04T06:57:00.445Z,2.46
2019-03-04T06:59:37.499Z,2.80
2019-03-04T07:02:27.446Z,2.98
2019-03-04T07:05:27.852Z,2.89
2019-03-04T07:08:01.010Z,2.81
2019-03-04T07:10:32.258Z,3.05
2019-03-04T07:13:03.802Z,3.06
2019-03-04T07:15:35.457Z,3.04
2019-03-04T07:18:06.918Z,3.22
2019-03-04T07:20:52.601Z,3.39
2019-03-04T07:23:24.177Z,3.56
2019-03-04T07:25:58.081Z,3.50
2019-03-04T07:28:32.534Z,3.53
2019-03-04T07:31:04.450Z,3.59
2019-03-04T07:33:37.372Z,3.58
2019-03-04T07:36:09.517Z,3.60
2019-03-04T07:38:46.810Z,3.73
2019-03-04T07:41:18.375Z,3.90
2019-03-04T07:43:50.926Z,4.05
2019-03-04T07:46:25.047Z,4.03
2019-03-04T07:48:58.542Z,4.19
2019-03-04T07:51:30.306Z,4.14
2019-03-04T07:54:04.355Z,4.13
2019-03-04T07:56:41.725Z,4.15
2019-03-04T07:59:15.515Z,4.16
2019-03-04T08:01:47.069Z,4.11
2019-03-04T08:04:19.701Z,4.31
2019-03-04T08:06:51.180Z,4.67
2019-03-04T08:09:29.439Z,4.88
2019-03-04T08:12:27.902Z,4.91
2019-03-04T08:14:59.470Z,4.83
2019-03-04T08:17:31.462Z,4.76
2019-03-04T08:20:05.524Z,4.63
2019-03-04T08:22:36.591Z,4.61
2019-03-04T08:25:09.937Z,4.62
2019-03-04T08:27:43.291Z,4.72
2019-03-04T08:30:18.192Z,4.96
2019-03-04T08:32:53.947Z,5.20
2019-03-04T08:35:25.960Z,5.24
2019-03-04T08:37:59.409Z,5.34
2019-03-04T08:40:31.471Z,5.45
2019-03-04T08:43:02.962Z,5.73
2019-03-04T08:45:35.308Z,5.79
2019-03-04T08:48:06.785Z,5.66
2019-03-04T08:50:38.357Z,5.84
2019-03-04T08:53:11.164Z,5.87
2019-03-04T08:55:45.216Z,5.86
2019-03-04T08:58:17.208Z,6.00
2019-03-04T09:00:50.076Z,6.38
2019-03-04T09:03:25.877Z,6.40
2019-03-04T09:06:00.959Z,6.50
2019-03-04T09:08:32.646Z,6.74
2019-03-04T09:11:10.520Z,6.80
2019-03-04T09:13:42.031Z,6.91
2019-03-04T09:16:14.539Z,6.80
2019-03-04T09:18:45.919Z,6.88
2019-03-04T09:21:18.729Z,6.84
2019-03-04T09:23:50.846Z,6.92
2019-03-04T09:26:23.477Z,6.95
2019-03-04T09:28:56.011Z,7.01
2019-03-04T09:31:28.474Z,6.96
2019-03-04T09:33:59.940Z,7.02
2019-03-04T09:36:33.086Z,6.96
2019-03-04T09:39:06.769Z,6.90
2019-03-04T09:41:39.821Z,6.83
2019-03-04T09:44:11.062Z,7.10
2019-03-04T09:46:44.913Z,7.19
2019-03-04T09:49:16.647Z,7.19
2019-03-04T09:54:26.903Z,7.16
2019-03-04T09:56:59.124Z,7.14
2019-03-04T09:59:31.551Z,7.37
2019-03-04T10:02:11.578Z,7.21
2019-03-04T10:04:47.091Z,7.28
2019-03-04T10:07:41.612Z,7.31
2019-03-04T10:13:46.091Z,7.32
2019-03-04T10:16:20.921Z,7.31
2019-03-04T10:19:06.832Z,7.27
2019-03-04T10:21:45.692Z,7.12
2019-03-04T10:24:24.662Z,7.08
2019-03-04T10:27:11.787Z,7.08
2019-03-04T10:29:54.463Z,6.95
2019-03-04T10:33:14.122Z,6.98
2019-03-04T10:35:58.756Z,7.13
2019-03-04T10:38:34.613Z,7.16
2019-03-04T10:41:31.977Z,7.11
2019-03-04T10:44:37.597Z,7.08
2019-03-04T10:47:06.477Z,7.16
2019-03-04T10:49:38.082Z,7.31
2019-03-04T10:52:09.405Z,7.35
2019-03-04T10:54:45.259Z,7.46
2019-03-04T10:57:17.715Z,7.63
2019-03-04T10:59:50.601Z,7.68
2019-03-04T11:02:22.007Z,7.70
2019-03-04T11:04:53.566Z,7.65
2019-03-04T11:07:27.954Z,7.78
2019-03-04T11:09:59.845Z,7.83
2019-03-04T11:12:32.846Z,7.95
2019-03-04T11:15:13.064Z,8.00
2019-03-04T11:17:46.307Z,8.11
2019-03-04T11:20:17.755Z,7.82
2019-03-04T11:22:49.520Z,8.11
2019-03-04T11:25:21.300Z,8.00
2019-03-04T11:27:53.885Z,7.94
2019-03-04T11:30:34.567Z,7.87
2019-03-04T11:33:06.356Z,7.85
2019-03-04T11:35:43.723Z,7.83
2019-03-04T11:38:40.023Z,7.82
2019-03-04T11:41:20.590Z,7.84
2019-03-04T11:43:52.781Z,7.91
2019-03-04T11:46:24.943Z,7.89
2019-03-04T11:48:57.455Z,7.89
2019-03-04T11:51:28.836Z,7.90
2019-03-04T11:54:03.519Z,7.81
2019-03-04T11:56:35.272Z,7.77
2019-03-04T11:59:13.092Z,7.79
2019-03-04T12:01:50.050Z,7.77
2019-03-04T12:04:22.846Z,7.79
2019-03-04T12:06:54.648Z,7.85
2019-03-04T12:09:29.072Z,7.83
2019-03-04T12:12:00.570Z,7.84
2019-03-04T12:14:33.971Z,7.91
2019-03-04T12:17:05.371Z,7.98
2019-03-04T12:19:37.257Z,7.91
2019-03-04T12:22:09.598Z,7.88
2019-03-04T12:24:42.766Z,7.78
2019-03-04T12:27:14.477Z,7.80
2019-03-04T12:29:46.460Z,7.81
2019-03-04T12:32:20.408Z,7.80
2019-03-04T12:34:54.571Z,7.90
2019-03-04T12:37:25.723Z,7.88
2019-03-04T12:39:58.359Z,7.87
2019-03-04T12:42:30.781Z,7.73
2019-03-04T12:45:07.524Z,7.80
2019-03-04T12:47:39.063Z,7.81
2019-03-04T12:50:24.057Z,7.86
2019-03-04T12:52:58.457Z,7.77
2019-03-04T12:55:33.045Z,7.75
2019-03-04T12:58:04.915Z,7.79
2019-03-04T13:00:38.356Z,7.76
2019-03-04T13:03:18.816Z,7.69
2019-03-04T13:05:56.573Z,7.70
2019-03-04T13:08:29.902Z,7.78
2019-03-04T13:11:02.282Z,7.81
2019-03-04T13:13:34.831Z,7.65
2019-03-04T13:16:06.598Z,7.58
2019-03-04T13:18:40.582Z,7.55
2019-03-04T13:21:15.877Z,7.44
2019-03-04T13:23:48.228Z,7.32
2019-03-04T13:26:29.607Z,7.21
2019-03-04T13:29:01.515Z,7.12
2019-03-04T13:31:34.042Z,7.07
2019-03-04T13:34:07.600Z,7.07
2019-03-04T13:36:46.287Z,7.05
2019-03-04T13:39:18.135Z,6.90
2019-03-04T13:41:50.850Z,6.97
2019-03-04T13:44:27.567Z,6.96
2019-03-04T13:46:59.644Z,7.01
2019-03-04T13:49:46.058Z,6.84
2019-03-04T13:52:20.467Z,6.90
2019-03-04T13:54:55.717Z,6.93
2019-03-04T13:57:27.151Z,6.79
2019-03-04T13:59:59.973Z,6.95
2019-03-04T14:02:31.840Z,6.89
2019-03-04T14:05:11.650Z,6.90
2019-03-04T14:07:46.698Z,6.87
2019-03-04T14:10:25.852Z,6.83
2019-03-04T14:13:01.269Z,6.90
2019-03-04T14:15:41.118Z,6.84
2019-03-04T14:18:15.540Z,6.95
2019-03-04T14:20:46.995Z,6.86
2019-03-04T14:23:18.390Z,6.92
2019-03-04T14:25:49.932Z,6.99
2019-03-04T14:28:22.544Z,7.04
2019-03-04T14:30:57.110Z,7.13
2019-03-04T14:33:29.011Z,7.09
2019-03-04T14:36:00.524Z,7.06
2019-03-04T14:38:34.724Z,7.07
2019-03-04T14:41:06.444Z,6.98
2019-03-04T14:43:39.169Z,7.06
2019-03-04T14:46:17.784Z,6.90
2019-03-04T14:48:49.524Z,6.92
2019-03-04T14:51:23.765Z,6.91
2019-03-04T14:53:58.316Z,6.97
2019-03-04T14:56:29.333Z,6.84
2019-03-04T14:59:10.225Z,6.89
2019-03-04T15:01:38.273Z,6.79
2019-03-04T15:04:12.548Z,6.76
2019-03-04T15:06:45.759Z,6.68
2019-03-04T15:09:18.864Z,6.63
2019-03-04T15:11:51.537Z,6.45
2019-03-04T15:14:25.372Z,6.57
2019-03-04T15:17:03.301Z,6.16
2019-03-04T15:19:34.062Z,6.45
2019-03-04T15:22:08.318Z,6.47
2019-03-04T15:24:40.250Z,6.40
2019-03-04T15:27:14.005Z,6.31
2019-03-04T15:29:45.385Z,6.30
2019-03-04T15:32:22.584Z,6.33
2019-03-04T15:34:54.495Z,6.39
2019-03-04T15:37:26.928Z,6.35
2019-03-04T15:39:59.668Z,6.35
2019-03-04T15:42:32.399Z,6.42
2019-03-04T15:45:03.947Z,6.24
2019-03-04T15:47:36.715Z,6.38
2019-03-04T15:50:11.357Z,6.36
2019-03-04T15:52:45.237Z,6.42
2019-03-04T15:55:16.642Z,6.41
2019-03-04T15:57:50.334Z,6.43
2019-03-04T16:00:23.267Z,6.37
2019-03-04T16:02:54.765Z,6.32
2019-03-04T16:05:27.047Z,6.40
2019-03-04T16:08:07.194Z,6.35
2019-03-04T16:10:35.075Z,6.34
2019-03-04T16:13:08.047Z,6.35
2019-03-04T16:15:46.978Z,6.36
2019-03-04T16:18:18.245Z,6.32
2019-03-04T16:20:51.410Z,6.27
2019-03-04T16:23:25.595Z,6.26
2019-03-04T16:25:59.065Z,6.30
2019-03-04T16:28:31.069Z,6.33
2019-03-04T16:31:02.596Z,6.22
2019-03-04T16:33:34.383Z,6.34
2019-03-04T16:36:12.492Z,6.34
2019-03-04T16:38:45.232Z,6.36
2019-03-04T16:41:17.567Z,6.36
2019-03-04T16:43:49.162Z,6.34
2019-03-04T16:46:20.739Z,6.32
2019-03-04T16:48:52.166Z,6.28
2019-03-04T16:51:24.358Z,6.31
2019-03-04T16:53:56.814Z,6.34
2019-03-04T16:56:30.231Z,6.26
2019-03-04T16:59:01.531Z,6.31
2019-03-04T17:01:33.911Z,6.32
2019-03-04T17:04:05.547Z,6.26
2019-03-04T17:06:37.325Z,6.05
2019-03-04T17:09:17.952Z,6.13
2019-03-04T17:11:49.147Z,6.16
2019-03-04T17:14:22.868Z,6.11
2019-03-04T17:16:58.567Z,6.02
2019-03-04T17:19:31.006Z,5.92
2019-03-04T17:22:02.624Z,6.20
2019-03-04T17:24:34.205Z,6.16
2019-03-04T17:27:06.897Z,6.14
2019-03-04T17:29:38.449Z,5.99
2019-03-04T17:32:10.005Z,5.98
2019-03-04T17:34:42.766Z,5.95
2019-03-04T17:37:14.831Z,5.92
2019-03-04T17:39:48.142Z,6.01
2019-03-04T17:42:20.753Z,6.01
2019-03-04T17:44:53.399Z,5.98
2019-03-04T17:47:26.133Z,5.89
2019-03-04T17:49:57.670Z,5.91
2019-03-04T17:52:29.501Z,5.91
2019-03-04T17:55:01.158Z,5.82
2019-03-04T17:57:34.189Z,5.82
2019-03-04T18:00:14.503Z,5.74
2019-03-04T18:02:46.334Z,5.66
2019-03-04T18:05:17.763Z,5.66
2019-03-04T18:07:49.467Z,5.63
2019-03-04T18:10:20.904Z,5.54
2019-03-04T18:13:06.833Z,5.49
2019-03-04T18:15:40.526Z,5.45
2019-03-04T18:18:13.658Z,5.40
2019-03-04T18:20:45.047Z,5.32
2019-03-04T18:23:16.449Z,5.30
2019-03-04T18:25:58.315Z,5.29
2019-03-04T18:28:46.824Z,5.28
2019-03-04T18:31:43.041Z,5.23
2019-03-04T18:34:45.142Z,5.17
2019-03-04T18:37:40.451Z,4.98
2019-03-04T18:40:21.454Z,5.03
2019-03-04T18:43:08.263Z,4.97
2019-03-04T18:45:47.926Z,4.95
2019-03-04T18:48:40.682Z,4.92
2019-03-04T18:51:12.145Z,4.91
2019-03-04T18:53:45.243Z,4.87
2019-03-04T18:56:21.968Z,4.71
2019-03-04T18:58:50.476Z,4.78
2019-03-04T19:01:21.810Z,4.80
2019-03-04T19:03:53.548Z,4.80
2019-03-04T19:06:25.200Z,4.72
2019-03-04T19:08:58.111Z,4.65
2019-03-04T19:11:29.578Z,4.64
2019-03-04T19:14:01.323Z,4.63
2019-03-04T19:16:32.577Z,4.59
2019-03-04T19:19:04.376Z,4.54
2019-03-04T19:21:37.149Z,4.57
2019-03-04T19:24:15.651Z,4.55
2019-03-04T19:26:47.294Z,4.53
2019-03-04T19:29:20.520Z,4.57
2019-03-04T19:31:52.273Z,4.51
2019-03-04T19:34:23.791Z,4.49
2019-03-04T19:36:55.765Z,4.44
2019-03-04T19:39:29.080Z,4.37
2019-03-04T19:42:01.546Z,4.31
2019-03-04T19:44:33.745Z,4.32
2019-03-04T19:47:05.441Z,4.37
2019-03-04T19:49:38.031Z,4.32
2019-03-04T19:52:09.681Z,4.30
2019-03-04T19:54:42.675Z,4.32
2019-03-04T19:57:15.282Z,4.29
2019-03-04T19:59:46.724Z,4.20
2019-03-04T20:02:18.222Z,4.22
2019-03-04T20:04:50.448Z,4.19
2019-03-04T20:07:22.352Z,4.19
2019-03-04T20:09:54.161Z,4.12
2019-03-04T20:12:28.155Z,4.08
2019-03-04T20:15:00.650Z,4.00
2019-03-04T20:17:34.653Z,4.04
2019-03-04T20:20:12.669Z,4.03
2019-03-04T20:22:44.321Z,3.91
2019-03-04T20:25:17.160Z,3.92
2019-03-04T20:27:49.536Z,3.94
2019-03-04T20:30:25.603Z,3.93
2019-03-04T20:32:57.091Z,3.86
2019-03-04T20:35:30.195Z,3.75
2019-03-04T20:38:10.736Z,3.80
2019-03-04T20:40:42.398Z,3.83
2019-03-04T20:43:18.618Z,3.83
2019-03-04T20:45:53.000Z,3.81
2019-03-04T20:48:25.025Z,3.81
2019-03-04T20:50:58.251Z,3.80
2019-03-04T20:53:29.527Z,3.77
2019-03-04T20:56:01.063Z,3.67
2019-03-04T20:58:38.288Z,3.72
2019-03-04T21:01:10.738Z,3.73
2019-03-04T21:03:45.866Z,3.68
2019-03-04T21:06:24.059Z,3.69
2019-03-04T21:09:04.828Z,3.72
2019-03-04T21:11:37.610Z,3.71
2019-03-04T21:14:08.889Z,3.73
2019-03-04T21:16:40.218Z,3.72
2019-03-04T21:19:12.963Z,3.66
2019-03-04T21:21:44.999Z,3.70
2019-03-04T21:24:23.991Z,3.66
2019-03-04T21:26:56.471Z,3.57
2019-03-04T21:29:38.734Z,3.57
2019-03-04T21:32:29.689Z,3.45
2019-03-04T21:35:29.402Z,3.61
2019-03-04T21:38:11.657Z,3.57
2019-03-04T21:40:46.762Z,3.48
2019-03-04T21:43:21.373Z,3.47
2019-03-04T21:46:31.231Z,3.51
2019-03-04T21:49:07.005Z,3.51
2019-03-04T21:51:50.586Z,3.42
2019-03-04T21:54:22.136Z,3.37
2019-03-04T21:57:09.420Z,3.39
2019-03-04T21:59:40.823Z,3.34
2019-03-04T22:02:15.250Z,3.34
2019-03-04T22:04:46.345Z,3.32
2019-03-04T22:07:17.848Z,3.32
2019-03-04T22:09:52.974Z,3.29
2019-03-04T22:12:24.633Z,3.30
2019-03-04T22:14:56.335Z,3.24
2019-03-04T22:17:28.790Z,3.23
2019-03-04T22:20:00.885Z,3.22
2019-03-04T22:22:32.751Z,3.18
2019-03-04T22:25:06.571Z,3.13
2019-03-04T22:27:41.243Z,3.17
2019-03-04T22:30:17.241Z,3.17
2019-03-04T22:32:51.011Z,3.13
2019-03-04T22:35:23.492Z,3.18
2019-03-04T22:37:54.488Z,3.11
2019-03-04T22:40:29.060Z,3.13
2019-03-04T22:43:00.331Z,3.12
2019-03-04T22:45:31.786Z,3.16
2019-03-04T22:48:03.955Z,3.11
2019-03-04T22:50:35.391Z,3.15
2019-03-04T22:53:07.270Z,3.14
2019-03-04T22:55:39.979Z,3.10
2019-03-04T22:58:11.199Z,3.08
2019-03-04T23:00:47.624Z,3.11
2019-03-04T23:03:27.064Z,3.14
2019-03-04T23:06:21.147Z,3.08
2019-03-04T23:08:52.607Z,3.04
2019-03-04T23:11:27.261Z,3.04
2019-03-04T23:14:07.027Z,3.04
2019-03-04T23:16:41.771Z,3.05
2019-03-04T23:19:13.564Z,2.98
2019-03-04T23:21:44.963Z,2.96
2019-03-04T23:24:16.447Z,3.02
2019-03-04T23:26:47.772Z,3.00
2019-03-04T23:29:20.698Z,2.97
2019-03-04T23:31:52.678Z,2.95
2019-03-04T23:34:24.114Z,2.99
2019-03-04T23:36:55.720Z,2.97
2019-03-04T23:39:27.345Z,2.95
2019-03-04T23:41:59.637Z,2.95
2019-03-04T23:44:30.871Z,2.96
2019-03-04T23:47:07.422Z,2.97
2019-03-04T23:49:41.535Z,2.97
2019-03-04T23:52:13.815Z,2.97
2019-03-04T23:54:45.347Z,2.99
2019-03-04T23:57:16.613Z,3.01
2019-03-04T23:59:48.102Z,3.02
